createdAt,value
2022-10-20T00:01:25.258Z,53.22
2022-10-20T00:03:52.233Z,53.09
2022-10-20T00:06:20.669Z,53.15
2022-10-20T00:08:47.974Z,53.28
2022-10-20T00:11:16.295Z,53.12
2022-10-20T00:13:44.075Z,53.09
2022-10-20T00:16:10.580Z,53.16
2022-10-20T00:18:37.240Z,53.35
2022-10-20T00:21:07.788Z,53.41
2022-10-20T00:23:34.410Z,53.51
2022-10-20T00:26:01.775Z,53.44
2022-10-20T00:28:28.204Z,53.48
2022-10-20T00:30:56.072Z,53.49
2022-10-20T00:33:23.024Z,53.46
2022-10-20T00:35:49.508Z,53.32
2022-10-20T00:38:15.976Z,53.49
2022-10-20T00:40:42.576Z,53.41
2022-10-20T00:43:12.948Z,53.31
2022-10-20T00:45:39.775Z,53.45
2022-10-20T00:48:08.245Z,53.30
2022-10-20T00:50:38.666Z,53.28
2022-10-20T00:53:05.605Z,53.34
2022-10-20T00:55:34.068Z,53.32
2022-10-20T00:58:01.021Z,53.55
2022-10-20T01:00:28.314Z,53.44
2022-10-20T01:02:56.370Z,53.26
2022-10-20T01:05:23.344Z,53.30
2022-10-20T01:07:50.067Z,53.51
2022-10-20T01:10:17.253Z,53.49
2022-10-20T01:13:02.372Z,53.48
2022-10-20T01:15:41.475Z,53.57
2022-10-20T01:18:14.759Z,53.54
2022-10-20T01:20:47.405Z,53.78
2022-10-20T01:23:29.386Z,53.89
2022-10-20T01:26:28.357Z,53.79
2022-10-20T01:28:57.596Z,53.82
2022-10-20T01:31:24.019Z,53.73
2022-10-20T01:33:56.202Z,53.85
2022-10-20T01:36:28.791Z,53.86
2022-10-20T01:39:00.673Z,53.89
2022-10-20T01:41:34.050Z,53.84
2022-10-20T01:44:03.296Z,53.99
2022-10-20T01:46:30.630Z,53.81
2022-10-20T01:48:57.563Z,53.74
2022-10-20T01:51:24.071Z,53.37
2022-10-20T01:53:50.503Z,53.80
2022-10-20T01:56:20.122Z,53.58
2022-10-20T01:59:05.291Z,53.41
2022-10-20T02:01:40.468Z,53.63
2022-10-20T02:04:08.389Z,53.55
2022-10-20T02:06:43.115Z,53.76
2022-10-20T02:09:24.277Z,53.68
2022-10-20T02:12:01.380Z,53.64
2022-10-20T02:14:28.744Z,53.85
2022-10-20T02:16:59.219Z,53.90
2022-10-20T02:19:27.540Z,53.78
2022-10-20T02:21:55.510Z,53.88
2022-10-20T02:24:23.679Z,53.78
2022-10-20T02:26:51.707Z,53.79
2022-10-20T02:29:20.372Z,53.80
2022-10-20T02:31:48.185Z,53.81
2022-10-20T02:34:14.764Z,53.93
2022-10-20T02:36:42.718Z,53.65
2022-10-20T02:39:09.710Z,53.75
2022-10-20T02:41:36.739Z,53.70
2022-10-20T02:44:03.587Z,53.92
2022-10-20T02:46:30.061Z,53.76
2022-10-20T02:48:56.532Z,53.82
2022-10-20T02:51:22.922Z,53.78
2022-10-20T02:53:50.037Z,53.57
2022-10-20T02:56:16.603Z,53.62
2022-10-20T02:58:43.139Z,53.77
2022-10-20T03:01:09.571Z,53.86
2022-10-20T03:03:36.080Z,53.72
2022-10-20T03:06:10.087Z,53.82
2022-10-20T03:08:36.676Z,53.86
2022-10-20T03:11:03.366Z,53.72
2022-10-20T03:16:01.745Z,53.82
2022-10-20T03:18:28.236Z,53.87
2022-10-20T03:20:54.860Z,53.81
2022-10-20T03:23:21.785Z,53.93
2022-10-20T03:25:48.410Z,54.01
2022-10-20T03:28:15.441Z,54.11
2022-10-20T03:30:41.931Z,53.92
2022-10-20T03:33:08.574Z,54.37
2022-10-20T03:35:35.121Z,54.32
2022-10-20T03:38:01.596Z,54.20
2022-10-20T03:40:28.078Z,54.16
2022-10-20T03:42:54.577Z,54.29
2022-10-20T03:45:21.305Z,54.25
2022-10-20T03:47:47.886Z,54.24
2022-10-20T03:50:14.604Z,54.31
2022-10-20T03:52:41.084Z,54.29
2022-10-20T03:55:07.765Z,54.34
2022-10-20T03:57:34.692Z,54.33
2022-10-20T04:00:01.406Z,54.41
2022-10-20T04:02:34.060Z,54.48
2022-10-20T04:05:01.327Z,54.57
2022-10-20T04:07:27.834Z,54.57
2022-10-20T04:09:54.424Z,54.43
2022-10-20T04:12:20.941Z,54.17
2022-10-20T04:14:47.712Z,54.34
2022-10-20T04:17:14.209Z,54.67
2022-10-20T04:19:40.968Z,54.55
2022-10-20T04:22:07.530Z,54.46
2022-10-20T04:24:34.100Z,54.46
2022-10-20T04:27:00.635Z,54.62
2022-10-20T04:29:27.247Z,54.58
2022-10-20T04:31:53.816Z,54.63
2022-10-20T04:34:20.537Z,54.47
2022-10-20T04:36:47.064Z,54.63
2022-10-20T04:39:13.673Z,54.63
2022-10-20T04:41:40.170Z,54.81
2022-10-20T04:44:06.654Z,54.66
2022-10-20T04:46:33.110Z,54.55
2022-10-20T04:48:59.638Z,54.51
2022-10-20T04:51:26.194Z,54.68
2022-10-20T04:53:53.894Z,54.69
2022-10-20T04:56:21.772Z,54.49
2022-10-20T04:58:58.321Z,54.37
2022-10-20T05:01:26.516Z,54.68
2022-10-20T05:03:53.259Z,54.55
2022-10-20T05:06:21.431Z,54.70
2022-10-20T05:08:49.252Z,54.43
2022-10-20T05:11:16.582Z,54.55
2022-10-20T05:13:43.360Z,54.83
2022-10-20T05:16:10.783Z,54.75
2022-10-20T05:18:37.294Z,54.70
2022-10-20T05:21:09.712Z,54.76
2022-10-20T05:23:37.089Z,54.85
2022-10-20T05:26:07.906Z,54.70
2022-10-20T05:28:34.387Z,54.68
2022-10-20T05:31:06.051Z,54.67
2022-10-20T05:33:32.924Z,54.81
2022-10-20T05:35:59.760Z,54.67
2022-10-20T05:38:26.351Z,54.68
2022-10-20T05:40:52.865Z,54.86
2022-10-20T05:43:19.388Z,54.88
2022-10-20T05:45:45.836Z,54.72
2022-10-20T05:48:12.500Z,54.78
2022-10-20T05:50:39.237Z,54.81
2022-10-20T05:53:05.820Z,54.92
2022-10-20T05:55:32.865Z,55.01
2022-10-20T05:57:59.393Z,54.83
2022-10-20T06:00:31.028Z,54.93
2022-10-20T06:02:57.991Z,54.74
2022-10-20T06:05:24.676Z,54.88
2022-10-20T06:07:52.921Z,54.72
2022-10-20T06:10:19.366Z,54.90
2022-10-20T06:12:45.857Z,54.79
2022-10-20T06:15:12.415Z,54.75
2022-10-20T06:17:38.961Z,55.03
2022-10-20T06:20:05.663Z,54.81
2022-10-20T06:22:32.097Z,54.81
2022-10-20T06:24:58.580Z,54.87
2022-10-20T06:27:25.122Z,54.96
2022-10-20T06:29:52.625Z,55.04
2022-10-20T06:32:19.065Z,54.85
2022-10-20T06:34:45.696Z,55.10
2022-10-20T06:37:13.056Z,55.04
2022-10-20T06:39:39.636Z,54.98
2022-10-20T06:42:09.639Z,54.90
2022-10-20T06:44:38.635Z,54.96
2022-10-20T06:47:10.114Z,55.20
2022-10-20T06:49:36.664Z,55.23
2022-10-20T06:52:03.340Z,55.18
2022-10-20T06:54:29.950Z,55.05
2022-10-20T06:56:56.391Z,55.38
2022-10-20T06:59:22.843Z,55.24
2022-10-20T07:01:49.386Z,55.26
2022-10-20T07:04:16.246Z,55.12
2022-10-20T07:06:43.575Z,55.29
2022-10-20T07:09:14.006Z,55.34
2022-10-20T07:11:40.677Z,55.30
2022-10-20T07:14:07.223Z,55.24
2022-10-20T07:16:34.612Z,55.26
2022-10-20T07:19:01.508Z,55.26
2022-10-20T07:21:32.437Z,55.21
2022-10-20T07:24:03.507Z,55.12
2022-10-20T07:26:31.928Z,55.16
2022-10-20T07:28:59.936Z,55.13
2022-10-20T07:31:32.395Z,55.15
2022-10-20T07:34:06.880Z,55.32
2022-10-20T07:36:35.920Z,55.10
2022-10-20T07:39:04.649Z,55.13
2022-10-20T07:41:31.362Z,55.19
2022-10-20T07:43:58.162Z,55.37
2022-10-20T07:46:25.047Z,55.14
2022-10-20T07:48:51.524Z,55.19
2022-10-20T07:51:18.114Z,55.29
2022-10-20T07:53:44.794Z,55.31
2022-10-20T07:56:11.456Z,55.22
2022-10-20T07:58:37.972Z,55.27
2022-10-20T08:01:05.053Z,55.31
2022-10-20T08:03:31.630Z,55.24
2022-10-20T08:05:58.058Z,55.18
2022-10-20T08:08:24.648Z,55.26
2022-10-20T08:10:51.147Z,55.16
2022-10-20T08:13:17.677Z,55.27
2022-10-20T08:15:44.272Z,55.36
2022-10-20T08:18:10.835Z,55.43
2022-10-20T08:20:37.361Z,55.15
2022-10-20T08:23:03.936Z,55.28
2022-10-20T08:25:30.386Z,55.20
2022-10-20T08:30:24.352Z,55.13
2022-10-20T08:32:52.111Z,55.27
2022-10-20T08:35:18.777Z,55.21
2022-10-20T08:37:45.283Z,55.21
2022-10-20T08:40:16.387Z,55.32
2022-10-20T08:42:45.218Z,55.27
2022-10-20T08:45:15.584Z,55.11
2022-10-20T08:47:43.151Z,55.50
2022-10-20T08:50:12.521Z,55.34
2022-10-20T08:52:41.545Z,55.37
2022-10-20T08:55:10.425Z,55.48
2022-10-20T08:57:37.063Z,55.33
2022-10-20T09:00:23.866Z,55.34
2022-10-20T09:02:50.942Z,55.36
2022-10-20T09:05:21.048Z,55.28
2022-10-20T09:07:51.584Z,55.34
2022-10-20T09:10:33.932Z,55.33
2022-10-20T09:13:01.078Z,55.26
2022-10-20T09:15:28.590Z,55.37
2022-10-20T09:18:03.711Z,55.17
2022-10-20T09:20:38.639Z,55.27
2022-10-20T09:23:16.500Z,55.31
2022-10-20T09:25:52.439Z,55.16
2022-10-20T09:28:23.591Z,55.22
2022-10-20T09:30:50.314Z,55.14
2022-10-20T09:33:21.752Z,55.13
2022-10-20T09:35:48.954Z,55.00
2022-10-20T09:38:29.679Z,55.08
2022-10-20T09:40:59.188Z,55.15
2022-10-20T09:43:26.066Z,55.25
2022-10-20T09:45:58.644Z,55.34
2022-10-20T09:48:27.684Z,55.43
2022-10-20T09:50:56.191Z,55.59
2022-10-20T09:53:28.446Z,55.49
2022-10-20T09:55:55.516Z,55.47
2022-10-20T09:58:27.263Z,55.46
2022-10-20T10:01:00.518Z,55.45
2022-10-20T10:03:27.205Z,55.42
2022-10-20T10:05:55.205Z,55.38
2022-10-20T10:08:22.979Z,55.41
2022-10-20T10:11:01.617Z,55.34
2022-10-20T10:13:30.270Z,55.20
2022-10-20T10:16:09.987Z,55.20
2022-10-20T10:18:37.542Z,55.09
2022-10-20T10:21:11.752Z,55.10
2022-10-20T10:23:55.273Z,55.07
2022-10-20T10:26:40.570Z,54.99
2022-10-20T10:29:15.342Z,54.96
2022-10-20T10:31:47.037Z,54.99
2022-10-20T10:34:13.428Z,55.06
2022-10-20T10:36:39.933Z,55.03
2022-10-20T10:39:12.004Z,55.19
2022-10-20T10:41:44.512Z,55.09
2022-10-20T10:44:17.655Z,55.17
2022-10-20T10:46:53.331Z,55.19
2022-10-20T10:49:25.710Z,55.05
2022-10-20T10:52:15.204Z,55.14
2022-10-20T10:54:41.937Z,55.41
2022-10-20T10:57:20.541Z,55.97
2022-10-20T10:59:49.242Z,56.46
2022-10-20T11:02:18.665Z,56.38
2022-10-20T11:05:03.643Z,56.26
2022-10-20T11:07:45.901Z,55.65
2022-10-20T11:10:21.096Z,55.22
2022-10-20T11:12:53.688Z,54.55
2022-10-20T11:15:39.053Z,54.46
2022-10-20T11:18:28.555Z,54.34
2022-10-20T11:20:58.102Z,53.99
2022-10-20T11:23:24.546Z,53.92
2022-10-20T11:26:10.217Z,53.81
2022-10-20T11:28:44.160Z,53.91
2022-10-20T11:31:23.265Z,53.70
2022-10-20T11:33:54.556Z,53.51
2022-10-20T11:36:23.918Z,53.94
2022-10-20T11:38:51.560Z,53.91
2022-10-20T11:41:19.169Z,54.00
2022-10-20T11:43:55.254Z,54.04
2022-10-20T11:46:27.990Z,53.99
2022-10-20T11:48:57.358Z,54.07
2022-10-20T11:51:29.702Z,54.01
2022-10-20T11:54:08.281Z,54.09
2022-10-20T11:56:53.264Z,54.24
2022-10-20T11:59:38.501Z,54.14
2022-10-20T12:02:20.330Z,54.25
2022-10-20T12:04:49.610Z,54.20
2022-10-20T12:07:25.110Z,54.15
2022-10-20T12:10:10.499Z,54.25
2022-10-20T12:12:48.334Z,53.97
2022-10-20T12:15:19.870Z,53.94
2022-10-20T12:17:46.743Z,53.82
2022-10-20T12:20:22.069Z,54.09
2022-10-20T12:22:50.617Z,54.13
2022-10-20T12:25:37.450Z,54.11
2022-10-20T12:28:22.767Z,54.07
2022-10-20T12:30:56.681Z,54.02
2022-10-20T12:33:35.455Z,53.80
2022-10-20T12:36:17.357Z,53.71
2022-10-20T12:38:53.755Z,54.02
2022-10-20T12:41:26.330Z,53.80
2022-10-20T12:43:54.053Z,54.08
2022-10-20T12:46:27.606Z,54.07
2022-10-20T12:49:00.307Z,54.18
2022-10-20T12:51:26.802Z,54.08
2022-10-20T12:54:16.477Z,54.18
2022-10-20T12:56:43.356Z,54.23
2022-10-20T12:59:21.902Z,54.22
2022-10-20T13:02:06.931Z,54.29
2022-10-20T13:04:52.093Z,54.12
2022-10-20T13:07:37.645Z,54.40
2022-10-20T13:10:24.290Z,54.18
2022-10-20T13:12:50.853Z,54.22
2022-10-20T13:15:19.889Z,54.29
2022-10-20T13:17:57.678Z,54.56
2022-10-20T13:20:30.207Z,54.54
2022-10-20T13:22:57.111Z,54.55
2022-10-20T13:25:34.453Z,54.52
2022-10-20T13:28:05.004Z,54.70
2022-10-20T13:30:32.943Z,54.68
2022-10-20T13:36:01.319Z,54.80
2022-10-20T13:38:39.817Z,54.70
2022-10-20T13:41:17.958Z,54.94
2022-10-20T13:43:44.448Z,54.69
2022-10-20T13:46:31.875Z,54.70
2022-10-20T13:49:01.282Z,54.92
2022-10-20T13:51:29.861Z,54.86
2022-10-20T13:53:59.143Z,54.88
2022-10-20T13:56:34.876Z,55.08
2022-10-20T13:59:06.447Z,55.10
2022-10-20T14:01:34.807Z,55.08
2022-10-20T14:04:01.903Z,55.08
2022-10-20T14:06:32.355Z,55.14
2022-10-20T14:08:59.748Z,54.84
2022-10-20T14:11:29.531Z,54.98
2022-10-20T14:13:57.058Z,54.98
2022-10-20T14:16:26.265Z,55.21
2022-10-20T14:19:06.659Z,55.10
2022-10-20T14:21:42.314Z,55.37
2022-10-20T14:24:14.088Z,55.36
2022-10-20T14:26:44.090Z,55.08
2022-10-20T14:29:12.763Z,55.37
2022-10-20T14:31:39.346Z,55.24
2022-10-20T14:34:05.903Z,55.41
2022-10-20T14:36:33.084Z,55.43
2022-10-20T14:39:01.037Z,55.44
2022-10-20T14:41:31.994Z,55.59
2022-10-20T14:44:12.195Z,55.69
2022-10-20T14:46:47.020Z,55.81
2022-10-20T14:49:24.543Z,55.95
2022-10-20T14:51:56.796Z,55.78
2022-10-20T14:54:28.251Z,56.15
2022-10-20T14:57:03.134Z,56.13
2022-10-20T14:59:32.084Z,55.97
2022-10-20T15:02:02.536Z,55.99
2022-10-20T15:04:32.131Z,56.24
2022-10-20T15:07:21.800Z,56.18
2022-10-20T15:10:14.325Z,56.04
2022-10-20T15:12:42.955Z,56.16
2022-10-20T15:15:12.549Z,56.29
2022-10-20T15:17:40.668Z,56.10
2022-10-20T15:20:25.851Z,55.95
2022-10-20T15:22:54.718Z,56.07
2022-10-20T15:25:22.016Z,55.94
2022-10-20T15:27:48.656Z,56.09
2022-10-20T15:30:22.498Z,56.09
2022-10-20T15:32:49.398Z,56.28
2022-10-20T15:35:18.944Z,56.20
2022-10-20T15:37:49.504Z,56.28
2022-10-20T15:40:16.122Z,56.35
2022-10-20T15:42:42.778Z,56.35
2022-10-20T15:45:14.651Z,56.19
2022-10-20T15:47:41.122Z,56.44
2022-10-20T15:50:07.687Z,56.54
2022-10-20T15:52:34.359Z,56.72
2022-10-20T15:55:01.073Z,56.85
2022-10-20T15:57:27.705Z,56.45
2022-10-20T15:59:54.145Z,56.76
2022-10-20T16:02:21.088Z,56.62
2022-10-20T16:04:47.507Z,56.57
2022-10-20T16:07:13.926Z,56.61
2022-10-20T16:09:40.364Z,56.51
2022-10-20T16:12:06.818Z,56.34
2022-10-20T16:14:33.799Z,56.49
2022-10-20T16:17:00.212Z,56.46
2022-10-20T16:19:26.910Z,56.57
2022-10-20T16:21:53.362Z,56.31
2022-10-20T16:24:19.766Z,56.54
2022-10-20T16:26:46.203Z,56.36
2022-10-20T16:29:12.834Z,56.41
2022-10-20T16:31:39.508Z,56.63
2022-10-20T16:34:06.025Z,56.67
2022-10-20T16:36:32.799Z,56.63
2022-10-20T16:39:00.856Z,56.49
2022-10-20T16:41:27.385Z,56.52
2022-10-20T16:43:56.350Z,56.53
2022-10-20T16:46:25.226Z,56.53
2022-10-20T16:48:51.742Z,56.73
2022-10-20T16:51:18.288Z,56.89
2022-10-20T16:53:44.748Z,56.87
2022-10-20T16:56:15.219Z,56.97
2022-10-20T16:58:44.728Z,57.04
2022-10-20T17:01:12.440Z,56.75
2022-10-20T17:06:16.020Z,57.17
2022-10-20T17:08:42.676Z,57.08
2022-10-20T17:11:11.353Z,57.05
2022-10-20T17:13:38.259Z,56.77
2022-10-20T17:16:05.957Z,56.98
2022-10-20T17:18:32.818Z,57.11
2022-10-20T17:20:59.314Z,57.08
2022-10-20T17:23:25.776Z,57.15
2022-10-20T17:25:52.688Z,57.24
2022-10-20T17:28:19.799Z,57.50
2022-10-20T17:30:47.243Z,57.41
2022-10-20T17:33:14.305Z,57.27
2022-10-20T17:35:40.821Z,57.41
2022-10-20T17:38:07.323Z,57.43
2022-10-20T17:40:37.554Z,57.62
2022-10-20T17:43:04.046Z,57.48
2022-10-20T17:45:32.866Z,57.60
2022-10-20T17:48:01.494Z,57.64
2022-10-20T17:50:27.888Z,57.58
2022-10-20T17:52:54.368Z,57.67
2022-10-20T17:55:21.042Z,57.59
2022-10-20T17:57:47.791Z,57.62
2022-10-20T18:00:22.423Z,57.58
2022-10-20T18:02:53.416Z,57.70
2022-10-20T18:05:20.006Z,57.57
2022-10-20T18:07:46.682Z,57.61
2022-10-20T18:10:13.210Z,57.78
2022-10-20T18:12:40.054Z,57.69
2022-10-20T18:15:06.971Z,57.76
2022-10-20T18:17:34.997Z,57.64
2022-10-20T18:20:01.448Z,57.64
2022-10-20T18:22:27.895Z,57.64
2022-10-20T18:24:54.423Z,58.14
2022-10-20T18:27:22.070Z,57.77
2022-10-20T18:29:48.489Z,57.87
2022-10-20T18:32:15.341Z,57.84
2022-10-20T18:34:43.557Z,57.75
2022-10-20T18:37:10.260Z,57.83
2022-10-20T18:39:36.837Z,57.80
2022-10-20T18:42:03.320Z,57.89
2022-10-20T18:44:30.745Z,57.96
2022-10-20T18:46:58.428Z,58.17
2022-10-20T18:49:25.414Z,58.10
2022-10-20T18:51:52.050Z,58.04
2022-10-20T18:54:19.217Z,58.25
2022-10-20T18:56:45.840Z,58.11
2022-10-20T18:59:14.165Z,58.25
2022-10-20T19:01:41.016Z,58.07
2022-10-20T19:04:08.666Z,58.25
2022-10-20T19:06:37.086Z,58.49
2022-10-20T19:09:08.141Z,58.56
2022-10-20T19:11:35.511Z,58.43
2022-10-20T19:14:02.228Z,58.61
2022-10-20T19:16:30.163Z,58.55
2022-10-20T19:18:57.674Z,58.63
2022-10-20T19:21:25.127Z,58.21
2022-10-20T19:23:53.615Z,58.49
2022-10-20T19:26:20.217Z,58.32
2022-10-20T19:28:56.087Z,58.32
2022-10-20T19:31:36.323Z,58.52
2022-10-20T19:34:05.927Z,58.37
2022-10-20T19:36:33.099Z,58.45
2022-10-20T19:38:59.663Z,58.48
2022-10-20T19:41:26.474Z,58.44
2022-10-20T19:43:53.041Z,58.40
2022-10-20T19:46:20.206Z,58.40
2022-10-20T19:48:47.524Z,58.50
2022-10-20T19:51:15.025Z,58.44
2022-10-20T19:53:41.671Z,58.34
2022-10-20T19:56:09.399Z,58.39
2022-10-20T19:58:36.655Z,58.45
2022-10-20T20:01:04.008Z,58.72
2022-10-20T20:03:31.192Z,58.51
2022-10-20T20:05:58.899Z,58.54
2022-10-20T20:08:25.524Z,58.65
2022-10-20T20:10:52.617Z,58.71
2022-10-20T20:13:19.059Z,58.67
2022-10-20T20:15:45.491Z,58.71
2022-10-20T20:18:13.682Z,58.68
2022-10-20T20:20:41.047Z,58.59
2022-10-20T20:23:07.590Z,58.53
2022-10-20T20:25:37.867Z,58.62
2022-10-20T20:28:04.832Z,58.47
2022-10-20T20:30:32.476Z,58.68
2022-10-20T20:32:59.696Z,58.57
2022-10-20T20:35:26.359Z,58.65
2022-10-20T20:37:52.913Z,58.68
2022-10-20T20:40:20.206Z,58.69
2022-10-20T20:42:47.061Z,58.75
2022-10-20T20:45:14.436Z,58.76
2022-10-20T20:47:40.928Z,58.63
2022-10-20T20:50:07.623Z,58.78
2022-10-20T20:52:34.092Z,58.61
2022-10-20T20:55:00.497Z,58.55
2022-10-20T20:57:28.910Z,58.73
2022-10-20T20:59:55.415Z,58.66
2022-10-20T21:02:21.882Z,58.82
2022-10-20T21:04:48.317Z,58.88
2022-10-20T21:07:14.924Z,58.75
2022-10-20T21:09:41.427Z,58.86
2022-10-20T21:12:07.942Z,58.74
2022-10-20T21:14:34.427Z,58.75
2022-10-20T21:17:01.086Z,58.71
2022-10-20T21:19:27.543Z,58.59
2022-10-20T21:22:01.391Z,58.74
2022-10-20T21:24:28.024Z,58.73
2022-10-20T21:26:54.579Z,58.73
2022-10-20T21:29:21.082Z,58.80
2022-10-20T21:31:47.484Z,58.61
2022-10-20T21:34:13.946Z,58.85
2022-10-20T21:36:40.491Z,58.95
2022-10-20T21:39:08.565Z,58.88
2022-10-20T21:41:36.151Z,58.83
2022-10-20T21:44:03.550Z,58.88
2022-10-20T21:46:31.922Z,58.94
2022-10-20T21:48:59.587Z,58.98
2022-10-20T21:51:27.098Z,58.87
2022-10-20T21:54:06.905Z,58.98
2022-10-20T21:59:05.459Z,59.03
2022-10-20T22:01:32.258Z,58.97
2022-10-20T22:03:59.141Z,59.08
2022-10-20T22:06:26.692Z,59.06
2022-10-20T22:08:54.686Z,59.07
2022-10-20T22:11:25.580Z,59.18
2022-10-20T22:13:52.407Z,59.24
2022-10-20T22:16:20.809Z,59.12
2022-10-20T22:18:47.314Z,59.17
2022-10-20T22:21:14.868Z,59.11
2022-10-20T22:23:42.102Z,59.21
2022-10-20T22:26:09.090Z,59.21
2022-10-20T22:28:35.548Z,59.01
2022-10-20T22:33:33.605Z,59.05
2022-10-20T22:36:00.293Z,59.18
2022-10-20T22:38:26.885Z,59.05
2022-10-20T22:40:57.292Z,59.15
2022-10-20T22:43:23.960Z,59.23
2022-10-20T22:45:50.375Z,59.11
2022-10-20T22:48:16.866Z,59.08
2022-10-20T22:50:43.285Z,58.96
2022-10-20T22:53:11.007Z,58.99
2022-10-20T22:55:37.578Z,59.22
2022-10-20T22:58:04.251Z,59.20
2022-10-20T23:00:30.777Z,59.08
2022-10-20T23:02:57.510Z,59.10
2022-10-20T23:05:24.167Z,59.30
2022-10-20T23:07:50.819Z,59.09
2022-10-20T23:10:17.331Z,59.17
2022-10-20T23:12:43.838Z,59.24
2022-10-20T23:15:10.534Z,59.16
2022-10-20T23:17:37.815Z,59.35
2022-10-20T23:20:04.686Z,59.21
2022-10-20T23:22:31.208Z,59.32
2022-10-20T23:24:57.740Z,59.27
2022-10-20T23:27:24.381Z,59.38
2022-10-20T23:29:50.841Z,59.28
2022-10-20T23:32:17.335Z,59.33
2022-10-20T23:34:43.858Z,59.36
2022-10-20T23:37:10.305Z,59.38
2022-10-20T23:39:36.973Z,59.37
2022-10-20T23:42:06.449Z,59.44
2022-10-20T23:44:34.442Z,59.42
2022-10-20T23:47:00.880Z,59.58
2022-10-20T23:49:27.618Z,59.46
2022-10-20T23:51:54.144Z,59.27
2022-10-20T23:54:20.637Z,59.55
2022-10-20T23:56:47.116Z,59.33
2022-10-20T23:59:13.656Z,59.33
